Shobonier, IL (62885)

1:05 AM CDT on April 27, 2017 (GMT -0500)
Kinmundy Atmospheric Research Laboratory | | Change Station

Elev 570 ft 38.78 °N, 88.89 °W | Updated 13 minutes ago

Overcast
Overcast
58.6 °F
Feels Like 58.6 °F
N
0.0
Wind Variable Wind from SE
Gusts 0.0 mph

Today
High -- | Low -- °F
--% Chance of Precip.
Yesterday
High -- | Low -- °F
Precip. -- in
Pressure 29.44 in
Visibility 10.0 miles
Clouds Scattered Clouds 700 ft
Mostly Cloudy 7000 ft
Mostly Cloudy 8000 ft
Dew Point 58 °F
Humidity 97%
Rainfall 0.07 in
Snow Depth Not available.
6:03 AM 7:45 PM
New Moon, 1% visible
METAR KSLO 270555Z AUTO 13007KT 10SM SCT007 BKN070 BKN080 16/14 A2944 RMK AO2 P0004 60035 T01580143 10170 20156 402720156
Pressure 29.44 in
Visibility 10.0 miles
Clouds Scattered Clouds 700 ft
Mostly Cloudy 7000 ft
Mostly Cloudy 8000 ft
Dew Point 58 °F
Humidity 97%
Rainfall 0.07 in
Snow Depth Not available.
6:03 AM 7:45 PM
New Moon, 1% visible
METAR KSLO 270555Z AUTO 13007KT 10SM SCT007 BKN070 BKN080 16/14 A2944 RMK AO2 P0004 60035 T01580143 10170 20156 402720156

Get Severe Weather Alerts

Thanks for signing up!

Be on the lookout for a verification email in your inbox.

You'll start receiving the daily forecast at 8 AM.

×

10-Day Weather Forecast

Almanac

Astronomy

Apr. 27, 2017 Rise Set
Actual Time
Civil Twilight
Nautical Twilight
Astronomical Twilight
Moon
Length of Visible Light
Length of Day
Tomorrow will be .
, % of the Moon is Illuminated

Today's Extremes

State Highs State Lows

Community

WunderPhotos

WunderBlog® & News

Nearby

Air Quality

  Air Quality AQ Index Pollutant
Not available.

Snow Depth

Station Depth Elevation

Earthquake Activity

City Distance Mag. Time & Date
Minimum magnitude displayed is 2.5.

Coastal Water Temperatures

Place Temperature

Stations

Nearby Weather Stations

Station Location Temp. Windchill Dew Point Humidity Wind Precip. Elev Updated Type
                   

Watches & Warnings

There are currently no watches in effect.